createdAt,value
2019-01-19T00:01:02.408Z,7.83
2019-01-19T00:03:46.540Z,7.73
2019-01-19T00:06:21.163Z,7.03
2019-01-19T00:08:50.510Z,7.30
2019-01-19T00:11:38.859Z,7.90
2019-01-19T00:14:10.561Z,7.27
2019-01-19T00:16:50.969Z,7.20
2019-01-19T00:19:46.662Z,7.17
2019-01-19T00:22:47.123Z,6.63
2019-01-19T00:25:19.005Z,7.33
2019-01-19T00:27:59.441Z,7.47
2019-01-19T00:30:31.125Z,7.63
2019-01-19T00:33:08.473Z,7.80
2019-01-19T00:35:58.163Z,7.07
2019-01-19T00:38:41.802Z,5.90
2019-01-19T00:41:42.125Z,5.93
2019-01-19T00:44:13.891Z,5.77
2019-01-19T00:46:48.614Z,6.23
2019-01-19T00:49:19.143Z,6.00
2019-01-19T00:52:10.354Z,7.30
2019-01-19T00:54:41.999Z,12.60
2019-01-19T00:57:22.823Z,8.23
2019-01-19T00:59:52.566Z,11.50
2019-01-19T01:02:32.952Z,13.77
2019-01-19T01:05:13.513Z,8.83
2019-01-19T01:08:06.370Z,8.80
2019-01-19T01:10:43.657Z,9.50
2019-01-19T01:13:24.327Z,18.77
2019-01-19T01:15:59.156Z,12.43
2019-01-19T01:18:39.158Z,14.00
2019-01-19T01:21:22.750Z,9.27
2019-01-19T01:24:00.689Z,13.63
2019-01-19T01:26:38.133Z,17.47
2019-01-19T01:29:24.701Z,17.50
2019-01-19T01:31:58.964Z,19.40
2019-01-19T01:34:55.087Z,20.77
2019-01-19T01:37:32.379Z,24.73
2019-01-19T01:40:12.836Z,23.47
2019-01-19T01:42:47.419Z,22.20
2019-01-19T01:45:21.924Z,23.00
2019-01-19T01:48:20.965Z,23.40
2019-01-19T01:51:01.764Z,30.60
2019-01-19T01:53:36.477Z,28.37
2019-01-19T01:56:07.715Z,27.03
2019-01-19T01:59:02.011Z,21.27
2019-01-19T02:01:39.354Z,19.93
2019-01-19T02:04:34.097Z,19.63
2019-01-19T02:07:08.689Z,20.67
2019-01-19T02:09:42.930Z,15.67
2019-01-19T02:12:26.812Z,15.67
2019-01-19T02:15:04.037Z,15.83
2019-01-19T02:17:38.891Z,12.57
2019-01-19T02:20:25.401Z,13.00
2019-01-19T02:23:12.057Z,11.47
2019-01-19T02:26:04.647Z,9.60
2019-01-19T02:28:36.817Z,10.00
2019-01-19T02:31:32.223Z,9.60
2019-01-19T02:34:12.378Z,9.20
2019-01-19T02:37:02.567Z,9.53
2019-01-19T02:39:43.234Z,8.60
2019-01-19T02:42:17.851Z,8.80
2019-01-19T02:44:49.824Z,8.17
2019-01-19T02:47:24.242Z,9.00
2019-01-19T02:50:14.162Z,9.37
2019-01-19T02:52:51.616Z,8.57
2019-01-19T02:55:40.474Z,9.33
2019-01-19T02:58:21.041Z,10.47
2019-01-19T03:01:13.955Z,10.50
2019-01-19T03:04:00.600Z,11.10
2019-01-19T03:06:48.948Z,10.23
2019-01-19T03:09:20.724Z,12.17
2019-01-19T03:11:55.641Z,12.30
2019-01-19T03:14:27.400Z,13.07
2019-01-19T03:17:21.107Z,13.17
2019-01-19T03:20:01.732Z,13.17
2019-01-19T03:22:39.639Z,14.00
2019-01-19T03:25:17.469Z,14.50
2019-01-19T03:28:13.566Z,14.33
2019-01-19T03:31:12.461Z,15.83
2019-01-19T03:33:47.390Z,13.60
2019-01-19T03:36:52.429Z,14.97
2019-01-19T03:39:30.143Z,16.10
2019-01-19T03:42:16.307Z,18.33
2019-01-19T03:44:48.204Z,18.30
2019-01-19T03:47:40.744Z,20.07
2019-01-19T03:50:15.354Z,20.23
2019-01-19T03:52:49.874Z,19.60
2019-01-19T03:55:55.216Z,21.13
2019-01-19T03:58:26.866Z,21.07
2019-01-19T04:01:01.128Z,22.80
2019-01-19T04:03:53.838Z,21.97
2019-01-19T04:06:28.575Z,22.37
2019-01-19T04:09:03.443Z,23.10
2019-01-19T04:12:05.780Z,22.23
2019-01-19T04:14:43.264Z,24.10
2019-01-19T04:17:40.728Z,24.07
2019-01-19T04:20:27.371Z,24.10
2019-01-19T04:22:57.455Z,24.83
2019-01-19T04:25:29.371Z,24.57
2019-01-19T04:27:59.737Z,25.13
2019-01-19T04:30:29.035Z,26.50
2019-01-19T04:32:57.840Z,25.83
2019-01-19T04:35:26.620Z,28.77
2019-01-19T04:37:55.499Z,28.83
2019-01-19T04:40:24.289Z,29.80
2019-01-19T04:42:53.388Z,26.73
2019-01-19T04:45:22.377Z,29.70
2019-01-19T04:47:51.119Z,29.13
2019-01-19T04:50:19.866Z,30.00
2019-01-19T04:52:49.049Z,28.93
2019-01-19T04:55:17.836Z,29.27
2019-01-19T04:57:46.571Z,29.07
2019-01-19T05:00:19.741Z,29.97
2019-01-19T05:02:48.605Z,32.23
2019-01-19T05:05:17.493Z,29.10
2019-01-19T05:07:46.715Z,29.87
2019-01-19T05:10:15.459Z,30.53
2019-01-19T05:12:44.369Z,30.17
2019-01-19T05:15:16.037Z,31.03
2019-01-19T05:17:45.224Z,31.07
2019-01-19T05:20:14.864Z,31.47
2019-01-19T05:22:43.924Z,31.20
2019-01-19T05:25:13.327Z,31.40
2019-01-19T05:27:42.115Z,28.93
2019-01-19T05:30:13.991Z,32.23
2019-01-19T05:32:42.766Z,32.40
2019-01-19T05:35:11.759Z,33.27
2019-01-19T05:37:40.541Z,31.50
2019-01-19T05:40:11.591Z,30.47
2019-01-19T05:42:40.419Z,32.17
2019-01-19T05:45:14.186Z,32.00
2019-01-19T05:47:42.976Z,31.03
2019-01-19T05:50:20.159Z,33.07
2019-01-19T05:52:48.894Z,33.80
2019-01-19T05:55:17.635Z,35.33
2019-01-19T05:57:46.517Z,37.00
2019-01-19T06:00:18.103Z,37.77
2019-01-19T06:02:46.960Z,36.83
2019-01-19T06:05:16.280Z,36.60
2019-01-19T06:07:45.056Z,37.13
2019-01-19T06:10:15.999Z,35.20
2019-01-19T06:12:44.883Z,33.30
2019-01-19T06:15:16.028Z,37.33
2019-01-19T06:17:44.811Z,33.50
2019-01-19T06:20:15.881Z,44.30
2019-01-19T06:22:44.740Z,32.87
2019-01-19T06:25:15.602Z,32.63
2019-01-19T06:27:44.877Z,33.33
2019-01-19T06:30:19.396Z,35.47
2019-01-19T06:32:48.343Z,37.87
2019-01-19T06:35:18.305Z,36.90
2019-01-19T06:37:47.411Z,50.10
2019-01-19T06:40:19.697Z,41.10
2019-01-19T06:42:48.563Z,37.13
2019-01-19T06:45:24.827Z,33.00
2019-01-19T06:47:53.818Z,37.30
2019-01-19T06:50:22.611Z,36.57
2019-01-19T06:52:51.356Z,35.87
2019-01-19T06:55:23.073Z,35.10
2019-01-19T06:57:51.814Z,51.53
2019-01-19T07:00:20.756Z,45.73
2019-01-19T07:02:49.904Z,50.00
2019-01-19T07:05:18.741Z,38.90
2019-01-19T07:07:47.530Z,34.80
2019-01-19T07:10:22.230Z,33.40
2019-01-19T07:12:51.044Z,32.23
2019-01-19T07:15:19.829Z,42.77
2019-01-19T07:17:48.715Z,34.83
2019-01-19T07:20:23.041Z,57.10
2019-01-19T07:22:51.829Z,36.13
2019-01-19T07:25:20.716Z,51.97
2019-01-19T07:27:49.504Z,35.00
2019-01-19T07:30:18.408Z,31.17
2019-01-19T07:32:48.007Z,31.87
2019-01-19T07:35:17.406Z,36.77
2019-01-19T07:37:46.191Z,31.67
2019-01-19T07:40:16.894Z,32.67
2019-01-19T07:42:46.835Z,30.97
2019-01-19T07:45:16.255Z,47.87
2019-01-19T07:47:46.171Z,29.70
2019-01-19T07:50:16.991Z,26.63
2019-01-19T07:52:46.235Z,25.90
2019-01-19T07:55:18.714Z,26.93
2019-01-19T07:57:47.562Z,25.43
2019-01-19T08:00:19.114Z,24.57
2019-01-19T08:02:48.007Z,24.93
2019-01-19T08:05:16.788Z,26.87
2019-01-19T08:07:45.684Z,25.37
2019-01-19T08:10:17.173Z,26.47
2019-01-19T08:12:46.315Z,24.27
2019-01-19T08:15:23.924Z,24.03
2019-01-19T08:17:52.717Z,25.33
2019-01-19T08:20:21.685Z,28.43
2019-01-19T08:22:50.594Z,24.37
2019-01-19T08:25:19.430Z,23.17
2019-01-19T08:27:49.706Z,27.37
2019-01-19T08:30:26.895Z,24.37
2019-01-19T08:32:55.785Z,26.57
2019-01-19T08:35:24.934Z,24.80
2019-01-19T08:37:53.912Z,26.40
2019-01-19T08:40:36.077Z,25.20
2019-01-19T08:43:06.600Z,20.00
2019-01-19T08:45:35.595Z,21.70
2019-01-19T08:48:04.735Z,20.30
2019-01-19T08:50:33.577Z,23.67
2019-01-19T08:53:02.372Z,21.73
2019-01-19T08:55:31.112Z,21.57
2019-01-19T08:58:00.075Z,23.60
2019-01-19T09:00:28.834Z,23.33
2019-01-19T09:02:57.621Z,22.27
2019-01-19T09:05:26.619Z,22.00
2019-01-19T09:07:55.409Z,18.23
2019-01-19T09:10:24.149Z,21.30
2019-01-19T09:12:54.537Z,18.87
2019-01-19T09:15:24.815Z,20.60
2019-01-19T09:17:53.635Z,22.60
2019-01-19T09:20:22.565Z,19.80
2019-01-19T09:22:52.950Z,20.93
2019-01-19T09:25:21.732Z,18.77
2019-01-19T09:27:50.642Z,19.90
2019-01-19T09:30:25.891Z,15.63
2019-01-19T09:32:55.388Z,16.60
2019-01-19T09:35:24.149Z,16.13
2019-01-19T09:37:52.944Z,18.27
2019-01-19T09:40:22.039Z,16.47
2019-01-19T09:42:50.787Z,16.93
2019-01-19T09:45:20.819Z,14.90
2019-01-19T09:47:49.612Z,16.63
2019-01-19T09:50:20.056Z,16.57
2019-01-19T09:52:48.851Z,16.83
2019-01-19T09:55:17.648Z,18.00
2019-01-19T09:57:46.631Z,16.70
2019-01-19T10:00:21.150Z,14.37
2019-01-19T10:02:50.961Z,15.30
2019-01-19T10:05:27.227Z,13.77
2019-01-19T10:07:56.458Z,16.67
2019-01-19T10:10:25.418Z,14.77
2019-01-19T10:12:54.205Z,13.93
2019-01-19T10:15:23.504Z,13.73
2019-01-19T10:17:52.293Z,14.70
2019-01-19T10:20:26.709Z,17.00
2019-01-19T10:22:55.615Z,15.13
2019-01-19T10:25:24.392Z,16.00
2019-01-19T10:27:53.238Z,16.63
2019-01-19T10:30:29.239Z,17.33
2019-01-19T10:32:58.085Z,15.63
2019-01-19T10:35:27.016Z,13.80
2019-01-19T10:37:56.879Z,15.83
2019-01-19T10:40:25.926Z,15.73
2019-01-19T10:42:54.933Z,14.20
2019-01-19T10:45:28.189Z,15.30
2019-01-19T10:47:57.019Z,13.53
2019-01-19T10:50:25.787Z,15.93
2019-01-19T10:52:54.679Z,17.73
2019-01-19T10:55:24.429Z,17.00
2019-01-19T10:57:53.489Z,15.83
2019-01-19T11:00:24.935Z,16.93
2019-01-19T11:02:54.077Z,14.23
2019-01-19T11:05:23.225Z,16.30
2019-01-19T11:07:52.318Z,17.23
2019-01-19T11:10:26.127Z,20.07
2019-01-19T11:12:54.917Z,21.97
2019-01-19T11:15:23.804Z,18.27
2019-01-19T11:17:52.801Z,16.37
2019-01-19T11:20:26.193Z,16.57
2019-01-19T11:22:55.700Z,16.93
2019-01-19T11:25:24.489Z,16.47
2019-01-19T11:27:53.277Z,16.67
2019-01-19T11:30:27.286Z,15.60
2019-01-19T11:32:56.082Z,16.83
2019-01-19T11:35:24.821Z,18.00
2019-01-19T11:37:53.652Z,16.43
2019-01-19T11:40:31.251Z,18.20
2019-01-19T11:43:00.240Z,18.57
2019-01-19T11:45:29.033Z,17.67
2019-01-19T11:47:57.826Z,19.13
2019-01-19T11:50:27.216Z,17.13
2019-01-19T11:52:55.962Z,17.80
2019-01-19T11:55:24.894Z,19.73
2019-01-19T11:57:56.369Z,17.07
2019-01-19T12:00:30.612Z,17.30
2019-01-19T12:02:59.452Z,16.73
2019-01-19T12:05:28.446Z,16.63
2019-01-19T12:07:57.233Z,18.00
2019-01-19T12:10:28.378Z,18.97
2019-01-19T12:12:57.749Z,16.10
2019-01-19T12:15:26.879Z,17.43
2019-01-19T12:17:55.970Z,19.30
2019-01-19T12:20:33.390Z,19.10
2019-01-19T12:23:02.146Z,18.43
2019-01-19T12:25:30.937Z,18.43
2019-01-19T12:27:59.829Z,17.83
2019-01-19T12:30:33.207Z,16.37
2019-01-19T12:33:02.011Z,19.60
2019-01-19T12:35:30.893Z,19.00
2019-01-19T12:38:00.647Z,18.73
2019-01-19T12:40:30.629Z,16.60
2019-01-19T12:43:02.172Z,16.13
2019-01-19T12:45:42.986Z,15.03
2019-01-19T12:48:11.981Z,17.20
2019-01-19T12:50:42.370Z,19.10
2019-01-19T12:53:11.157Z,19.10
2019-01-19T12:55:40.047Z,16.57
2019-01-19T12:58:09.793Z,19.03
2019-01-19T13:00:38.694Z,19.10
2019-01-19T13:03:08.920Z,19.17
2019-01-19T13:05:49.676Z,19.93
2019-01-19T13:08:21.497Z,18.03
2019-01-19T13:10:58.993Z,16.83
2019-01-19T13:13:28.185Z,16.77
2019-01-19T13:16:02.711Z,18.90
2019-01-19T13:18:51.362Z,19.90
2019-01-19T13:21:38.071Z,19.17
2019-01-19T13:24:15.409Z,18.97
2019-01-19T13:27:06.649Z,20.80
2019-01-19T13:29:47.557Z,21.60
2019-01-19T13:32:34.465Z,18.37
2019-01-19T13:35:25.723Z,16.93
2019-01-19T13:38:15.454Z,16.47
2019-01-19T13:40:58.988Z,17.43
2019-01-19T13:43:48.155Z,18.67
2019-01-19T13:46:44.285Z,19.20
2019-01-19T13:49:37.341Z,21.00
2019-01-19T13:52:09.246Z,20.03
2019-01-19T13:54:43.934Z,21.07
2019-01-19T13:57:28.383Z,17.30
2019-01-19T14:00:18.762Z,17.87
2019-01-19T14:03:13.745Z,17.13
2019-01-19T14:05:51.479Z,18.43
2019-01-19T14:08:59.884Z,19.17
2019-01-19T14:11:53.986Z,18.17
2019-01-19T14:14:47.955Z,19.33
2019-01-19T14:17:37.634Z,19.97
2019-01-19T14:20:24.326Z,19.77
2019-01-19T14:23:11.255Z,17.83
2019-01-19T14:26:00.115Z,16.20
2019-01-19T14:28:34.637Z,18.27
2019-01-19T14:31:29.244Z,18.67
2019-01-19T14:34:19.112Z,21.53
2019-01-19T14:36:56.709Z,22.87
2019-01-19T14:39:31.434Z,22.47
2019-01-19T14:42:19.355Z,25.87
2019-01-19T14:44:54.099Z,23.47
2019-01-19T14:47:31.387Z,24.63
2019-01-19T14:50:28.435Z,25.43
2019-01-19T14:53:16.788Z,23.57
2019-01-19T14:55:57.245Z,18.93
2019-01-19T14:58:31.560Z,22.23
2019-01-19T15:01:06.042Z,25.77
2019-01-19T15:03:43.783Z,26.63
2019-01-19T15:06:27.622Z,30.23
2019-01-19T15:09:17.717Z,26.47
2019-01-19T15:11:52.136Z,29.37
2019-01-19T15:14:26.860Z,28.43
2019-01-19T15:17:04.553Z,29.17
2019-01-19T15:19:58.943Z,27.20
2019-01-19T15:22:45.857Z,29.13
2019-01-19T15:25:42.173Z,28.70
2019-01-19T15:28:16.801Z,25.97
2019-01-19T15:30:48.574Z,27.57
2019-01-19T15:33:26.064Z,28.67
2019-01-19T15:36:06.752Z,28.47
2019-01-19T15:38:41.356Z,28.47
2019-01-19T15:41:28.039Z,26.37
2019-01-19T15:44:05.482Z,27.27
2019-01-19T15:46:56.873Z,27.83
2019-01-19T15:49:46.348Z,29.23
2019-01-19T15:52:33.468Z,30.87
2019-01-19T15:55:17.100Z,28.63
2019-01-19T15:57:58.178Z,32.10
2019-01-19T16:00:47.950Z,26.83
2019-01-19T16:03:25.144Z,24.27
2019-01-19T16:06:16.561Z,26.67
2019-01-19T16:08:57.276Z,26.20
2019-01-19T16:11:37.278Z,28.00
2019-01-19T16:14:18.047Z,28.73
2019-01-19T16:16:55.439Z,31.50
2019-01-19T16:19:59.354Z,25.97
2019-01-19T16:22:40.026Z,28.00
2019-01-19T16:25:20.888Z,25.90
2019-01-19T16:27:58.177Z,28.10
2019-01-19T16:30:41.815Z,26.67
2019-01-19T16:33:37.745Z,22.00
2019-01-19T16:36:12.271Z,22.70
2019-01-19T16:39:08.289Z,25.27
2019-01-19T16:41:52.131Z,24.50
2019-01-19T16:44:38.964Z,21.03
2019-01-19T16:47:20.221Z,21.97
2019-01-19T16:49:54.644Z,21.33
2019-01-19T16:52:35.445Z,18.63
2019-01-19T16:55:19.455Z,20.63
2019-01-19T16:57:51.624Z,19.87
2019-01-19T17:00:29.426Z,18.20
2019-01-19T17:03:07.118Z,18.83
2019-01-19T17:05:47.242Z,18.93
2019-01-19T17:08:35.863Z,17.40
2019-01-19T17:11:19.769Z,20.03
2019-01-19T17:14:06.683Z,19.30
2019-01-19T17:16:38.439Z,20.70
2019-01-19T17:19:10.194Z,21.33
2019-01-19T17:21:57.317Z,16.03
2019-01-19T17:24:52.419Z,20.07
2019-01-19T17:27:32.860Z,20.23
2019-01-19T17:30:13.755Z,21.90
2019-01-19T17:32:51.040Z,21.67
2019-01-19T17:35:34.884Z,20.53
2019-01-19T17:38:09.211Z,20.47
2019-01-19T17:41:06.966Z,22.63
2019-01-19T17:44:00.050Z,23.50
2019-01-19T17:46:35.064Z,22.10
2019-01-19T17:49:27.877Z,19.83
2019-01-19T17:52:31.719Z,20.60
2019-01-19T17:55:09.390Z,19.43
2019-01-19T17:57:41.175Z,19.90
2019-01-19T18:00:24.991Z,19.63
2019-01-19T18:03:02.590Z,22.27
2019-01-19T18:05:43.155Z,24.30
2019-01-19T18:08:23.468Z,22.90
2019-01-19T18:11:07.218Z,23.27
2019-01-19T18:14:07.710Z,25.27
2019-01-19T18:16:58.822Z,24.27
2019-01-19T18:19:33.153Z,26.80
2019-01-19T18:22:38.333Z,24.73
2019-01-19T18:25:35.884Z,23.70
2019-01-19T18:28:22.346Z,21.37
2019-01-19T18:31:02.801Z,20.17
2019-01-19T18:33:43.617Z,20.13
2019-01-19T18:36:21.351Z,21.17
2019-01-19T18:38:53.040Z,23.30
2019-01-19T18:41:31.505Z,22.07
2019-01-19T18:44:06.102Z,25.03
2019-01-19T18:46:41.533Z,23.80
2019-01-19T18:49:16.329Z,26.10
2019-01-19T18:51:51.177Z,25.33
2019-01-19T18:54:48.015Z,25.53
2019-01-19T18:57:31.754Z,26.07
2019-01-19T19:00:23.919Z,24.13
2019-01-19T19:02:58.616Z,24.37
2019-01-19T19:05:36.008Z,23.87
2019-01-19T19:08:16.572Z,21.83
2019-01-19T19:11:00.616Z,25.37
2019-01-19T19:13:35.129Z,24.17
2019-01-19T19:16:19.530Z,25.97
2019-01-19T19:19:09.472Z,26.10
2019-01-19T19:22:05.080Z,23.83
2019-01-19T19:24:51.581Z,24.13
2019-01-19T19:27:39.677Z,24.37
2019-01-19T19:30:23.297Z,22.50
2019-01-19T19:33:13.260Z,22.80
2019-01-19T19:36:07.547Z,23.27
2019-01-19T19:38:44.792Z,23.10
2019-01-19T19:41:16.694Z,20.80
2019-01-19T19:44:18.256Z,20.33
2019-01-19T19:46:52.788Z,22.23
2019-01-19T19:49:33.009Z,21.60
2019-01-19T19:52:02.661Z,21.33
2019-01-19T19:54:31.798Z,20.67
2019-01-19T19:57:01.139Z,21.37
2019-01-19T19:59:29.937Z,23.73
2019-01-19T20:01:58.714Z,22.03
2019-01-19T20:04:27.913Z,23.03
2019-01-19T20:06:57.593Z,22.30
2019-01-19T20:09:26.332Z,22.97
2019-01-19T20:11:56.737Z,23.50
2019-01-19T20:14:25.723Z,21.27
2019-01-19T20:16:54.470Z,23.60
2019-01-19T20:19:23.301Z,22.23
2019-01-19T20:21:52.093Z,22.20
2019-01-19T20:24:20.880Z,23.13
2019-01-19T20:26:49.663Z,20.83
2019-01-19T20:29:18.652Z,21.27
2019-01-19T20:31:47.397Z,20.73
2019-01-19T20:34:16.233Z,24.17
2019-01-19T20:36:45.534Z,23.97
2019-01-19T20:39:14.271Z,23.93
2019-01-19T20:41:43.208Z,21.47
2019-01-19T20:44:11.988Z,22.87
2019-01-19T20:46:40.788Z,23.53
2019-01-19T20:49:09.531Z,22.23
2019-01-19T20:51:38.466Z,22.87
2019-01-19T20:54:08.793Z,22.33
2019-01-19T20:56:38.993Z,22.27
2019-01-19T20:59:07.804Z,25.97
2019-01-19T21:01:36.542Z,23.63
2019-01-19T21:04:05.385Z,24.70
2019-01-19T21:06:34.679Z,22.57
2019-01-19T21:09:06.539Z,23.90
2019-01-19T21:11:35.327Z,20.33
2019-01-19T21:14:04.344Z,20.57
2019-01-19T21:16:33.111Z,20.23
2019-01-19T21:19:01.903Z,20.00
2019-01-19T21:21:30.794Z,20.30
2019-01-19T21:23:59.784Z,19.87
2019-01-19T21:26:28.570Z,17.97
2019-01-19T21:28:57.559Z,18.47
2019-01-19T21:31:26.348Z,18.80
2019-01-19T21:33:55.134Z,16.47
2019-01-19T21:36:23.934Z,17.97
2019-01-19T21:38:52.681Z,19.03
2019-01-19T21:41:21.426Z,18.27
2019-01-19T21:43:53.299Z,14.70
2019-01-19T21:46:23.598Z,16.50
2019-01-19T21:48:52.373Z,16.30
2019-01-19T21:51:21.366Z,17.73
2019-01-19T21:53:50.361Z,18.37
2019-01-19T21:56:19.146Z,16.90
2019-01-19T21:58:48.045Z,18.57
2019-01-19T22:01:16.824Z,16.40
2019-01-19T22:03:45.570Z,17.43
2019-01-19T22:06:14.399Z,14.87
2019-01-19T22:08:43.141Z,15.00
2019-01-19T22:11:13.410Z,16.10
2019-01-19T22:13:43.739Z,16.03
2019-01-19T22:16:12.524Z,14.63
2019-01-19T22:18:41.269Z,14.53
2019-01-19T22:21:10.225Z,15.57
2019-01-19T22:23:40.529Z,15.00
2019-01-19T22:26:10.834Z,17.77
2019-01-19T22:28:39.841Z,16.80
2019-01-19T22:31:08.631Z,17.40
2019-01-19T22:33:37.623Z,18.13
2019-01-19T22:36:07.497Z,18.70
2019-01-19T22:38:36.449Z,17.83
2019-01-19T22:41:05.294Z,16.00
2019-01-19T22:43:34.182Z,17.13
2019-01-19T22:46:02.935Z,16.67
2019-01-19T22:48:31.677Z,16.53
2019-01-19T22:51:00.482Z,18.40
2019-01-19T22:53:29.260Z,16.70
2019-01-19T22:55:59.838Z,15.33
2019-01-19T22:58:28.682Z,15.40
2019-01-19T23:01:16.927Z,15.57
2019-01-19T23:03:45.817Z,16.47
2019-01-19T23:06:14.607Z,17.07
2019-01-19T23:08:43.499Z,16.40
2019-01-19T23:11:12.383Z,15.50
2019-01-19T23:13:41.179Z,15.30
2019-01-19T23:16:09.973Z,15.57
2019-01-19T23:18:38.761Z,15.37
2019-01-19T23:21:07.541Z,17.13
2019-01-19T23:23:36.326Z,15.90
2019-01-19T23:26:05.114Z,14.47
2019-01-19T23:28:33.862Z,16.47
2019-01-19T23:31:02.603Z,15.17
2019-01-19T23:33:31.478Z,15.63
2019-01-19T23:36:00.226Z,17.97
2019-01-19T23:38:29.054Z,15.73
2019-01-19T23:40:57.848Z,15.03
2019-01-19T23:43:26.591Z,16.10
2019-01-19T23:45:55.419Z,13.50
2019-01-19T23:48:24.619Z,15.63
2019-01-19T23:50:53.509Z,17.43
2019-01-19T23:53:22.298Z,16.43
2019-01-19T23:55:51.510Z,14.73
2019-01-19T23:58:20.324Z,15.20
